createdAt,value
2018-12-26T00:00:42.719Z,14.17
2018-12-26T00:03:12.204Z,14.20
2018-12-26T00:05:41.526Z,13.07
2018-12-26T00:08:10.901Z,12.53
2018-12-26T00:10:40.495Z,13.27
2018-12-26T00:13:10.876Z,12.83
2018-12-26T00:15:40.860Z,12.53
2018-12-26T00:18:10.578Z,12.20
2018-12-26T00:20:40.141Z,11.83
2018-12-26T00:23:09.337Z,13.10
2018-12-26T00:25:38.684Z,12.73
2018-12-26T00:28:09.070Z,12.03
2018-12-26T00:30:38.373Z,12.13
2018-12-26T00:33:07.716Z,13.73
2018-12-26T00:35:37.479Z,13.57
2018-12-26T00:38:06.783Z,12.97
2018-12-26T00:40:36.277Z,13.33
2018-12-26T00:43:05.613Z,11.07
2018-12-26T00:45:35.026Z,12.93
2018-12-26T00:48:04.558Z,13.50
2018-12-26T00:50:34.170Z,13.20
2018-12-26T00:53:03.451Z,13.83
2018-12-26T00:55:32.973Z,13.00
2018-12-26T00:58:02.682Z,13.13
2018-12-26T01:00:32.149Z,12.87
2018-12-26T01:03:01.502Z,11.70
2018-12-26T01:05:31.346Z,13.30
2018-12-26T01:08:00.617Z,13.17
2018-12-26T01:10:29.954Z,12.27
2018-12-26T01:12:59.293Z,12.03
2018-12-26T01:15:28.927Z,12.97
2018-12-26T01:17:58.340Z,13.10
2018-12-26T01:20:27.788Z,13.43
2018-12-26T01:22:57.447Z,14.53
2018-12-26T01:25:26.992Z,14.03
2018-12-26T01:27:56.623Z,14.37
2018-12-26T01:30:26.689Z,13.83
2018-12-26T01:32:56.130Z,13.67
2018-12-26T01:35:25.670Z,13.00
2018-12-26T01:37:54.972Z,14.13
2018-12-26T01:40:25.249Z,13.60
2018-12-26T01:42:54.760Z,13.70
2018-12-26T01:45:24.171Z,13.57
2018-12-26T01:47:53.589Z,13.50
2018-12-26T01:50:23.243Z,13.23
2018-12-26T01:52:52.671Z,13.67
2018-12-26T01:55:22.047Z,13.97
2018-12-26T01:57:51.856Z,13.70
2018-12-26T02:00:21.363Z,14.27
2018-12-26T02:02:50.905Z,13.07
2018-12-26T02:05:20.369Z,13.50
2018-12-26T02:07:50.122Z,13.67
2018-12-26T02:10:19.640Z,12.93
2018-12-26T02:12:49.101Z,14.00
2018-12-26T02:15:18.692Z,14.03
2018-12-26T02:17:48.176Z,13.90
2018-12-26T02:20:17.461Z,14.37
2018-12-26T02:22:46.740Z,12.47
2018-12-26T02:25:15.958Z,12.87
2018-12-26T02:27:45.347Z,12.80
2018-12-26T02:30:14.843Z,12.67
2018-12-26T02:32:44.309Z,13.87
2018-12-26T02:35:13.892Z,13.23
2018-12-26T02:37:43.551Z,13.60
2018-12-26T02:40:12.714Z,13.80
2018-12-26T02:42:41.995Z,13.63
2018-12-26T02:45:11.287Z,14.53
2018-12-26T02:47:40.486Z,13.67
2018-12-26T02:50:10.299Z,13.00
2018-12-26T02:52:39.580Z,13.97
2018-12-26T02:55:08.813Z,14.47
2018-12-26T02:57:37.999Z,13.33
2018-12-26T03:00:07.545Z,14.33
2018-12-26T03:02:36.730Z,14.23
2018-12-26T03:05:06.007Z,14.00
2018-12-26T03:07:35.460Z,14.60
2018-12-26T03:10:04.986Z,13.13
2018-12-26T03:12:34.353Z,14.37
2018-12-26T03:15:03.695Z,13.77
2018-12-26T03:17:34.398Z,13.30
2018-12-26T03:20:03.994Z,13.97
2018-12-26T03:22:33.197Z,15.00
2018-12-26T03:25:02.377Z,15.63
2018-12-26T03:27:31.550Z,15.37
2018-12-26T03:30:00.836Z,14.37
2018-12-26T03:32:30.054Z,15.63
2018-12-26T03:34:59.246Z,14.13
2018-12-26T03:37:28.752Z,14.93
2018-12-26T03:39:57.943Z,14.17
2018-12-26T03:42:27.769Z,14.53
2018-12-26T03:44:57.026Z,14.20
2018-12-26T03:47:26.184Z,13.77
2018-12-26T03:49:56.065Z,13.80
2018-12-26T03:52:25.374Z,14.30
2018-12-26T03:54:54.582Z,14.67
2018-12-26T03:57:23.736Z,13.87
2018-12-26T03:59:52.992Z,13.97
2018-12-26T04:02:22.213Z,13.57
2018-12-26T04:04:51.484Z,12.67
2018-12-26T04:07:20.644Z,13.73
2018-12-26T04:09:49.892Z,12.97
2018-12-26T04:12:19.109Z,13.50
2018-12-26T04:14:48.290Z,12.90
2018-12-26T04:17:17.880Z,13.43
2018-12-26T04:19:47.158Z,13.47
2018-12-26T04:22:16.676Z,13.53
2018-12-26T04:24:47.934Z,13.17
2018-12-26T04:27:17.268Z,13.53
2018-12-26T04:29:46.496Z,13.53
2018-12-26T04:32:15.731Z,13.00
2018-12-26T04:34:44.921Z,14.70
2018-12-26T04:37:14.253Z,14.17
2018-12-26T04:39:43.502Z,13.23
2018-12-26T04:42:12.664Z,11.93
2018-12-26T04:44:41.857Z,10.83
2018-12-26T04:47:11.332Z,11.03
2018-12-26T04:49:40.842Z,11.53
2018-12-26T04:52:10.008Z,11.90
2018-12-26T04:54:39.306Z,11.53
2018-12-26T04:57:08.463Z,11.60
2018-12-26T04:59:38.056Z,12.83
2018-12-26T05:02:07.229Z,12.90
2018-12-26T05:04:36.725Z,12.23
2018-12-26T05:07:05.909Z,10.90
2018-12-26T05:09:35.346Z,11.60
2018-12-26T05:12:05.686Z,10.83
2018-12-26T05:14:35.125Z,11.83
2018-12-26T05:17:04.297Z,11.90
2018-12-26T05:19:33.459Z,10.67
2018-12-26T05:22:03.009Z,10.13
2018-12-26T05:24:32.482Z,10.07
2018-12-26T05:27:01.670Z,10.77
2018-12-26T05:29:30.854Z,10.00
2018-12-26T05:32:00.128Z,10.00
2018-12-26T05:34:29.290Z,11.13
2018-12-26T05:36:58.550Z,10.80
2018-12-26T05:39:28.026Z,10.57
2018-12-26T05:41:57.309Z,11.83
2018-12-26T05:44:26.466Z,10.50
2018-12-26T05:46:55.641Z,11.37
2018-12-26T05:49:25.051Z,12.00
2018-12-26T05:51:54.577Z,11.00
2018-12-26T05:54:23.733Z,11.13
2018-12-26T05:56:52.981Z,11.13
2018-12-26T05:59:22.139Z,11.70
2018-12-26T06:01:51.301Z,12.40
2018-12-26T06:04:21.389Z,11.43
2018-12-26T06:06:50.613Z,12.50
2018-12-26T06:09:19.766Z,12.03
2018-12-26T06:11:49.022Z,11.83
2018-12-26T06:14:18.182Z,10.93
2018-12-26T06:16:47.433Z,10.47
2018-12-26T06:19:16.599Z,11.30
2018-12-26T06:21:45.785Z,10.37
2018-12-26T06:24:14.945Z,11.17
2018-12-26T06:26:44.217Z,10.50
2018-12-26T06:29:13.761Z,11.43
2018-12-26T06:31:43.193Z,12.13
2018-12-26T06:34:12.381Z,11.20
2018-12-26T06:36:41.797Z,11.77
2018-12-26T06:39:11.043Z,10.87
2018-12-26T06:41:40.230Z,10.77
2018-12-26T06:44:09.621Z,10.93
2018-12-26T06:46:39.134Z,11.37
2018-12-26T06:49:08.632Z,11.60
2018-12-26T06:51:37.793Z,11.07
2018-12-26T06:54:06.976Z,10.73
2018-12-26T06:56:36.142Z,10.60
2018-12-26T06:59:05.994Z,11.80
2018-12-26T07:01:35.158Z,12.07
2018-12-26T07:04:04.450Z,11.13
2018-12-26T07:06:33.790Z,11.03
2018-12-26T07:09:03.190Z,9.17
2018-12-26T07:11:32.637Z,9.57
2018-12-26T07:14:01.814Z,9.50
2018-12-26T07:16:31.045Z,10.67
2018-12-26T07:19:00.234Z,10.57
2018-12-26T07:21:29.634Z,9.70
2018-12-26T07:23:59.162Z,9.83
2018-12-26T07:26:28.746Z,9.53
2018-12-26T07:28:57.944Z,10.47
2018-12-26T07:31:27.120Z,9.10
2018-12-26T07:33:56.301Z,9.27
2018-12-26T07:36:25.472Z,10.27
2018-12-26T07:38:54.962Z,10.23
2018-12-26T07:41:24.133Z,10.20
2018-12-26T07:43:53.314Z,8.97
2018-12-26T07:46:22.722Z,9.60
2018-12-26T07:48:51.914Z,9.23
2018-12-26T07:51:21.336Z,8.93
2018-12-26T07:53:50.484Z,9.40
2018-12-26T07:56:19.657Z,8.73
2018-12-26T07:58:49.332Z,8.80
2018-12-26T08:01:18.849Z,8.73
2018-12-26T08:03:48.014Z,8.00
2018-12-26T08:06:17.290Z,8.20
2018-12-26T08:08:46.447Z,8.90
2018-12-26T08:11:15.734Z,8.10
2018-12-26T08:13:44.905Z,8.07
2018-12-26T08:16:14.241Z,8.60
2018-12-26T08:18:43.376Z,9.27
2018-12-26T08:21:12.557Z,8.90
2018-12-26T08:23:41.716Z,8.17
2018-12-26T08:26:11.155Z,8.40
2018-12-26T08:28:40.722Z,8.97
2018-12-26T08:31:10.290Z,8.37
2018-12-26T08:33:39.441Z,8.63
2018-12-26T08:36:08.890Z,8.30
2018-12-26T08:38:38.215Z,8.20
2018-12-26T08:41:07.457Z,8.23
2018-12-26T08:43:36.613Z,8.47
2018-12-26T08:46:05.789Z,9.30
2018-12-26T08:48:35.294Z,9.03
2018-12-26T08:51:04.482Z,8.50
2018-12-26T08:53:33.777Z,8.33
2018-12-26T08:56:02.965Z,8.60
2018-12-26T08:58:35.253Z,8.77
2018-12-26T09:01:03.149Z,8.33
2018-12-26T09:03:32.301Z,8.50
2018-12-26T09:06:01.827Z,7.97
2018-12-26T09:08:31.246Z,8.10
2018-12-26T09:11:00.438Z,8.47
2018-12-26T09:13:29.586Z,8.57
2018-12-26T09:15:59.106Z,8.87
2018-12-26T09:18:28.593Z,10.13
2018-12-26T09:20:57.753Z,9.30
2018-12-26T09:23:27.357Z,8.43
2018-12-26T09:25:59.998Z,8.77
2018-12-26T09:28:29.456Z,8.63
2018-12-26T09:30:59.052Z,9.50
2018-12-26T09:33:28.736Z,9.73
2018-12-26T09:35:57.907Z,9.67
2018-12-26T09:38:27.247Z,10.00
2018-12-26T09:40:56.658Z,9.10
2018-12-26T09:43:25.931Z,8.93
2018-12-26T09:46:02.283Z,10.30
2018-12-26T09:48:31.220Z,9.27
2018-12-26T09:51:00.452Z,9.20
2018-12-26T09:53:29.983Z,9.97
2018-12-26T09:55:59.150Z,9.47
2018-12-26T09:58:28.345Z,9.47
2018-12-26T10:00:57.733Z,9.40
2018-12-26T10:03:26.907Z,10.83
2018-12-26T10:05:56.314Z,9.50
2018-12-26T10:08:25.699Z,10.27
2018-12-26T10:10:54.925Z,9.20
2018-12-26T10:13:24.325Z,9.80
2018-12-26T10:15:53.477Z,10.97
2018-12-26T10:18:22.978Z,9.73
2018-12-26T10:20:52.399Z,9.90
2018-12-26T10:23:21.933Z,9.93
2018-12-26T10:25:51.311Z,9.13
2018-12-26T10:28:20.579Z,9.73
2018-12-26T10:30:49.969Z,9.67
2018-12-26T10:33:19.187Z,9.63
2018-12-26T10:35:48.770Z,10.70
2018-12-26T10:38:17.970Z,9.43
2018-12-26T10:40:47.390Z,10.57
2018-12-26T10:43:16.886Z,11.37
2018-12-26T10:45:46.129Z,11.63
2018-12-26T10:48:15.579Z,11.43
2018-12-26T10:50:45.012Z,10.43
2018-12-26T10:53:14.233Z,10.30
2018-12-26T10:55:43.769Z,11.30
2018-12-26T10:58:13.251Z,10.83
2018-12-26T11:00:42.702Z,11.20
2018-12-26T11:03:12.232Z,10.93
2018-12-26T11:05:41.545Z,10.03
2018-12-26T11:08:11.089Z,10.20
2018-12-26T11:10:40.811Z,11.30
2018-12-26T11:13:10.303Z,10.27
2018-12-26T11:15:39.801Z,10.43
2018-12-26T11:18:08.953Z,10.27
2018-12-26T11:20:38.218Z,10.53
2018-12-26T11:23:07.629Z,11.17
2018-12-26T11:25:37.070Z,11.97
2018-12-26T11:28:06.242Z,11.33
2018-12-26T11:30:35.521Z,11.40
2018-12-26T11:33:04.745Z,11.57
2018-12-26T11:35:33.944Z,11.47
2018-12-26T11:38:03.094Z,11.27
2018-12-26T11:40:32.657Z,10.90
2018-12-26T11:43:02.208Z,11.47
2018-12-26T11:45:31.509Z,10.20
2018-12-26T11:48:01.638Z,10.70
2018-12-26T11:50:30.843Z,11.37
2018-12-26T11:53:00.032Z,10.90
2018-12-26T11:55:29.405Z,10.63
2018-12-26T11:57:59.188Z,11.73
2018-12-26T12:00:28.355Z,10.60
2018-12-26T12:02:57.532Z,10.73
2018-12-26T12:05:26.793Z,10.00
2018-12-26T12:07:56.042Z,11.00
2018-12-26T12:10:25.378Z,11.13
2018-12-26T12:12:54.627Z,10.67
2018-12-26T12:15:24.058Z,11.53
2018-12-26T12:17:53.334Z,10.30
2018-12-26T12:20:22.770Z,11.23
2018-12-26T12:22:51.937Z,11.53
2018-12-26T12:25:21.289Z,11.40
2018-12-26T12:27:50.981Z,10.90
2018-12-26T12:30:20.234Z,10.57
2018-12-26T12:32:49.435Z,11.50
2018-12-26T12:35:19.587Z,11.47
2018-12-26T12:37:49.103Z,10.67
2018-12-26T12:40:18.345Z,11.57
2018-12-26T12:42:47.898Z,10.30
2018-12-26T12:45:17.147Z,11.00
2018-12-26T12:47:46.327Z,10.53
2018-12-26T12:50:15.749Z,9.23
2018-12-26T12:52:45.502Z,11.43
2018-12-26T12:55:14.690Z,10.67
2018-12-26T12:57:43.873Z,11.00
2018-12-26T13:00:13.072Z,10.57
2018-12-26T13:02:42.311Z,10.97
2018-12-26T13:05:11.551Z,12.03
2018-12-26T13:07:40.733Z,11.80
2018-12-26T13:10:09.930Z,12.07
2018-12-26T13:12:39.193Z,11.23
2018-12-26T13:15:08.539Z,11.30
2018-12-26T13:17:37.902Z,12.00
2018-12-26T13:20:08.377Z,11.83
2018-12-26T13:22:37.601Z,12.03
2018-12-26T13:25:07.106Z,12.70
2018-12-26T13:27:36.557Z,12.20
2018-12-26T13:30:07.395Z,12.47
2018-12-26T13:32:36.732Z,12.97
2018-12-26T13:35:05.935Z,11.77
2018-12-26T13:37:44.436Z,12.30
2018-12-26T13:40:13.860Z,11.77
2018-12-26T13:42:43.287Z,12.00
2018-12-26T13:45:12.534Z,11.40
2018-12-26T13:47:42.693Z,12.47
2018-12-26T13:50:11.906Z,13.20
2018-12-26T13:52:41.216Z,12.33
2018-12-26T13:55:10.430Z,12.53
2018-12-26T13:57:39.948Z,11.70
2018-12-26T14:00:10.598Z,11.37
2018-12-26T14:02:40.034Z,12.90
2018-12-26T14:05:09.319Z,12.97
2018-12-26T14:07:39.339Z,11.87
2018-12-26T14:10:10.590Z,11.00
2018-12-26T14:12:40.742Z,11.13
2018-12-26T14:15:10.762Z,11.17
2018-12-26T14:17:40.035Z,11.37
2018-12-26T14:20:09.460Z,10.80
2018-12-26T14:22:38.765Z,10.80
2018-12-26T14:25:08.574Z,11.23
2018-12-26T14:27:38.092Z,11.57
2018-12-26T14:30:11.277Z,10.93
2018-12-26T14:32:39.510Z,9.73
2018-12-26T14:35:09.176Z,9.97
2018-12-26T14:37:38.612Z,10.27
2018-12-26T14:40:07.861Z,10.33
2018-12-26T14:42:37.319Z,10.43
2018-12-26T14:45:07.575Z,11.03
2018-12-26T14:47:36.835Z,11.00
2018-12-26T14:50:06.676Z,11.13
2018-12-26T14:52:35.954Z,10.53
2018-12-26T14:55:05.606Z,11.30
2018-12-26T14:57:34.788Z,11.83
2018-12-26T15:00:04.358Z,10.53
2018-12-26T15:02:33.612Z,10.30
2018-12-26T15:05:03.399Z,16.50
2018-12-26T15:07:33.049Z,14.03
2018-12-26T15:10:02.434Z,11.17
2018-12-26T15:12:31.952Z,11.93
2018-12-26T15:15:01.471Z,12.87
2018-12-26T15:17:30.912Z,13.10
2018-12-26T15:20:00.309Z,13.17
2018-12-26T15:22:29.553Z,12.63
2018-12-26T15:24:59.430Z,12.93
2018-12-26T15:27:28.782Z,12.73
2018-12-26T15:29:58.084Z,13.63
2018-12-26T15:32:27.688Z,13.53
2018-12-26T15:34:56.906Z,14.03
2018-12-26T15:37:26.178Z,13.57
2018-12-26T15:39:55.722Z,13.60
2018-12-26T15:42:25.001Z,12.77
2018-12-26T15:44:54.635Z,13.90
2018-12-26T15:47:24.289Z,13.43
2018-12-26T15:49:53.995Z,14.27
2018-12-26T15:52:23.678Z,13.73
2018-12-26T15:54:53.449Z,14.73
2018-12-26T15:57:22.792Z,14.03
2018-12-26T15:59:52.098Z,13.60
2018-12-26T16:02:21.393Z,13.63
2018-12-26T16:04:50.875Z,13.27
2018-12-26T16:07:20.395Z,14.33
2018-12-26T16:09:50.199Z,14.47
2018-12-26T16:12:19.547Z,13.97
2018-12-26T16:14:48.994Z,13.83
2018-12-26T16:17:18.287Z,13.93
2018-12-26T16:19:47.473Z,14.27
2018-12-26T16:22:16.755Z,16.17
2018-12-26T16:24:45.934Z,14.70
2018-12-26T16:27:16.164Z,14.40
2018-12-26T16:29:46.048Z,15.20
2018-12-26T16:32:15.386Z,14.47
2018-12-26T16:34:44.638Z,14.17
2018-12-26T16:37:14.204Z,15.13
2018-12-26T16:39:43.401Z,15.67
2018-12-26T16:42:12.920Z,16.10
2018-12-26T16:44:42.176Z,14.37
2018-12-26T16:47:11.723Z,15.23
2018-12-26T16:49:41.083Z,14.77
2018-12-26T16:52:10.288Z,15.13
2018-12-26T16:54:39.919Z,15.93
2018-12-26T16:57:09.363Z,15.83
2018-12-26T16:59:38.553Z,15.10
2018-12-26T17:02:07.756Z,14.90
2018-12-26T17:04:37.415Z,15.47
2018-12-26T17:07:06.954Z,14.93
2018-12-26T17:09:36.835Z,15.07
2018-12-26T17:12:06.286Z,16.30
2018-12-26T17:14:36.046Z,15.87
2018-12-26T17:17:05.596Z,15.80
2018-12-26T17:19:34.907Z,16.07
2018-12-26T17:22:04.210Z,16.20
2018-12-26T17:24:33.486Z,16.97
2018-12-26T17:27:03.093Z,17.07
2018-12-26T17:29:32.306Z,15.93
2018-12-26T17:32:01.493Z,14.77
2018-12-26T17:34:31.044Z,16.27
2018-12-26T17:37:00.562Z,15.03
2018-12-26T17:39:30.074Z,17.17
2018-12-26T17:41:59.241Z,16.70
2018-12-26T17:44:29.116Z,15.57
2018-12-26T17:46:58.646Z,18.60
2018-12-26T17:49:27.914Z,16.40
2018-12-26T17:51:57.675Z,15.70
2018-12-26T17:55:02.530Z,15.13
2018-12-26T17:57:38.631Z,15.97
2018-12-26T18:00:44.304Z,16.07
2018-12-26T18:03:14.463Z,13.30
2018-12-26T18:05:43.781Z,15.43
2018-12-26T18:08:13.305Z,14.97
2018-12-26T18:10:43.042Z,15.27
2018-12-26T18:13:12.479Z,16.30
2018-12-26T18:15:41.754Z,14.37
2018-12-26T18:18:11.265Z,14.80
2018-12-26T18:20:40.711Z,15.40
2018-12-26T18:23:10.101Z,15.23
2018-12-26T18:25:39.574Z,15.40
2018-12-26T18:28:08.893Z,14.63
2018-12-26T18:30:38.170Z,15.17
2018-12-26T18:33:07.783Z,15.00
2018-12-26T18:35:37.149Z,15.40
2018-12-26T18:38:06.396Z,15.47
2018-12-26T18:40:35.810Z,14.90
2018-12-26T18:43:05.013Z,15.60
2018-12-26T18:45:34.301Z,15.43
2018-12-26T18:48:03.531Z,16.50
2018-12-26T18:50:32.995Z,17.13
2018-12-26T18:53:02.592Z,15.37
2018-12-26T18:55:31.799Z,15.73
2018-12-26T18:58:01.594Z,14.87
2018-12-26T19:00:31.153Z,14.43
2018-12-26T19:03:00.414Z,15.93
2018-12-26T19:05:30.060Z,15.03
2018-12-26T19:07:59.433Z,14.53
2018-12-26T19:10:28.778Z,15.60
2018-12-26T19:12:58.529Z,15.77
2018-12-26T19:15:27.782Z,16.30
2018-12-26T19:17:57.430Z,14.90
2018-12-26T19:20:27.042Z,15.33
2018-12-26T19:22:56.543Z,16.30
2018-12-26T19:25:26.089Z,16.43
2018-12-26T19:27:55.346Z,16.73
2018-12-26T19:30:24.699Z,17.40
2018-12-26T19:32:54.009Z,16.17
2018-12-26T19:35:23.511Z,16.20
2018-12-26T19:37:52.840Z,14.83
2018-12-26T19:40:22.218Z,15.90
2018-12-26T19:42:51.671Z,17.53
2018-12-26T19:45:21.453Z,17.67
2018-12-26T19:47:51.356Z,16.33
2018-12-26T19:50:20.868Z,16.23
2018-12-26T19:52:50.846Z,16.23
2018-12-26T19:55:21.018Z,16.83
2018-12-26T19:57:52.038Z,16.37
2018-12-26T20:00:21.897Z,14.87
2018-12-26T20:02:51.497Z,15.33
2018-12-26T20:05:21.031Z,15.20
2018-12-26T20:07:50.511Z,15.97
2018-12-26T20:10:25.123Z,15.30
2018-12-26T20:12:54.708Z,15.57
2018-12-26T20:15:24.320Z,16.10
2018-12-26T20:17:54.062Z,15.80
2018-12-26T20:20:23.713Z,16.60
2018-12-26T20:22:53.194Z,15.67
2018-12-26T20:25:23.267Z,16.67
2018-12-26T20:27:52.839Z,16.60
2018-12-26T20:30:22.682Z,16.87
2018-12-26T20:32:52.226Z,16.33
2018-12-26T20:35:21.796Z,16.83
2018-12-26T20:37:51.245Z,16.10
2018-12-26T20:40:20.915Z,16.60
2018-12-26T20:42:50.386Z,16.50
2018-12-26T20:45:19.721Z,15.90
2018-12-26T20:47:49.340Z,17.23
2018-12-26T20:50:19.081Z,17.23
2018-12-26T20:52:48.617Z,16.93
2018-12-26T20:55:18.205Z,17.40
2018-12-26T20:57:47.456Z,16.47
2018-12-26T21:00:16.888Z,17.30
2018-12-26T21:02:46.409Z,16.10
2018-12-26T21:05:16.101Z,17.63
2018-12-26T21:07:45.855Z,19.40
2018-12-26T21:10:15.189Z,17.00
2018-12-26T21:12:44.696Z,17.63
2018-12-26T21:15:14.441Z,18.23
2018-12-26T21:17:43.929Z,17.87
2018-12-26T21:20:14.154Z,18.63
2018-12-26T21:22:44.082Z,18.43
2018-12-26T21:25:13.874Z,19.00
2018-12-26T21:27:43.054Z,17.67
2018-12-26T21:30:15.019Z,18.20
2018-12-26T21:32:44.374Z,18.23
2018-12-26T21:35:14.026Z,18.10
2018-12-26T21:37:43.287Z,16.97
2018-12-26T21:40:12.585Z,17.83
2018-12-26T21:42:42.643Z,19.07
2018-12-26T21:45:12.728Z,19.03
2018-12-26T21:47:42.088Z,19.07
2018-12-26T21:50:12.425Z,19.13
2018-12-26T21:52:42.710Z,19.60
2018-12-26T21:55:12.343Z,19.27
2018-12-26T21:57:41.986Z,20.03
2018-12-26T22:00:12.117Z,18.80
2018-12-26T22:02:41.285Z,18.67
2018-12-26T22:05:10.657Z,19.50
2018-12-26T22:07:40.026Z,19.77
2018-12-26T22:10:10.200Z,18.40
2018-12-26T22:12:39.795Z,19.40
2018-12-26T22:15:09.570Z,19.20
2018-12-26T22:17:39.306Z,19.93
2018-12-26T22:20:09.077Z,19.87
2018-12-26T22:22:38.410Z,18.03
2018-12-26T22:25:08.037Z,18.80
2018-12-26T22:27:37.592Z,19.03
2018-12-26T22:30:09.348Z,20.10
2018-12-26T22:32:38.676Z,21.20
2018-12-26T22:35:09.493Z,18.20
2018-12-26T22:37:39.456Z,19.13
2018-12-26T22:40:08.753Z,19.43
2018-12-26T22:42:37.955Z,19.07
2018-12-26T22:45:07.230Z,22.17
2018-12-26T22:47:36.782Z,19.97
2018-12-26T22:50:06.573Z,19.60
2018-12-26T22:52:36.411Z,20.13
2018-12-26T22:55:06.007Z,19.73
2018-12-26T22:57:35.495Z,19.53
2018-12-26T23:00:07.468Z,20.03
2018-12-26T23:02:39.044Z,20.40
2018-12-26T23:05:07.866Z,18.80
2018-12-26T23:07:37.148Z,19.80
2018-12-26T23:10:07.008Z,20.63
2018-12-26T23:12:36.195Z,19.50
2018-12-26T23:15:06.149Z,20.67
2018-12-26T23:17:35.338Z,21.17
2018-12-26T23:20:04.886Z,20.10
2018-12-26T23:22:34.212Z,20.20
2018-12-26T23:25:03.365Z,20.07
2018-12-26T23:27:32.623Z,18.33
2018-12-26T23:30:02.220Z,21.33
2018-12-26T23:32:31.546Z,18.73
2018-12-26T23:35:00.927Z,20.03
2018-12-26T23:37:30.530Z,19.20
2018-12-26T23:39:59.731Z,20.73
2018-12-26T23:42:29.235Z,21.07
2018-12-26T23:44:58.711Z,20.70
2018-12-26T23:47:27.877Z,19.27
2018-12-26T23:49:57.071Z,19.83
2018-12-26T23:52:26.242Z,19.50
2018-12-26T23:54:55.481Z,19.33
2018-12-26T23:57:24.723Z,19.40
2018-12-26T23:59:53.947Z,21.77
